createdAt,value
2018-12-13T00:00:55.568Z,4.18
2018-12-13T00:01:55.587Z,4.10
2018-12-13T00:02:55.612Z,3.99
2018-12-13T00:03:55.632Z,4.02
2018-12-13T00:04:55.655Z,3.97
2018-12-13T00:05:55.677Z,4.08
2018-12-13T00:06:55.700Z,4.04
2018-12-13T00:07:55.720Z,4.08
2018-12-13T00:08:55.743Z,4.02
2018-12-13T00:09:55.768Z,4.07
2018-12-13T00:10:55.784Z,4.07
2018-12-13T00:11:55.809Z,4.04
2018-12-13T00:12:55.834Z,4.03
2018-12-13T00:13:55.854Z,4.11
2018-12-13T00:14:55.874Z,4.03
2018-12-13T00:15:55.894Z,4.07
2018-12-13T00:16:55.918Z,4.07
2018-12-13T00:17:55.937Z,4.03
2018-12-13T00:18:55.962Z,3.99
2018-12-13T00:19:55.984Z,4.04
2018-12-13T00:20:56.002Z,4.02
2018-12-13T00:21:56.027Z,4.04
2018-12-13T00:22:56.049Z,4.04
2018-12-13T00:23:56.070Z,4.17
2018-12-13T00:24:56.092Z,4.00
2018-12-13T00:25:56.114Z,4.10
2018-12-13T00:26:56.134Z,4.14
2018-12-13T00:27:56.162Z,4.02
2018-12-13T00:28:56.182Z,4.03
2018-12-13T00:29:56.201Z,4.08
2018-12-13T00:30:56.221Z,4.15
2018-12-13T00:31:56.244Z,4.14
2018-12-13T00:32:56.267Z,4.18
2018-12-13T00:33:56.288Z,4.11
2018-12-13T00:34:56.309Z,4.11
2018-12-13T00:35:56.331Z,4.08
2018-12-13T00:36:56.351Z,4.15
2018-12-13T00:37:56.376Z,4.17
2018-12-13T00:38:56.398Z,4.15
2018-12-13T00:39:56.419Z,4.12
2018-12-13T00:40:56.441Z,4.20
2018-12-13T00:41:56.467Z,4.14
2018-12-13T00:42:56.486Z,4.14
2018-12-13T00:43:56.507Z,4.04
2018-12-13T00:44:56.529Z,4.11
2018-12-13T00:45:56.551Z,4.11
2018-12-13T00:46:56.571Z,4.08
2018-12-13T00:47:56.594Z,4.12
2018-12-13T00:48:56.616Z,4.18
2018-12-13T00:49:56.639Z,4.07
2018-12-13T00:50:56.661Z,4.11
2018-12-13T00:51:56.683Z,4.18
2018-12-13T00:52:56.705Z,4.20
2018-12-13T00:53:56.726Z,4.11
2018-12-13T00:54:56.746Z,4.11
2018-12-13T00:55:56.771Z,4.12
2018-12-13T00:56:56.793Z,4.11
2018-12-13T00:57:56.811Z,4.11
2018-12-13T00:58:56.836Z,4.14
2018-12-13T00:59:56.857Z,4.08
2018-12-13T01:00:56.885Z,4.14
2018-12-13T01:01:56.903Z,4.15
2018-12-13T01:02:56.922Z,4.17
2018-12-13T01:03:56.947Z,4.12
2018-12-13T01:04:56.965Z,4.22
2018-12-13T01:05:56.989Z,4.20
2018-12-13T01:06:57.017Z,4.10
2018-12-13T01:07:57.035Z,4.11
2018-12-13T01:08:57.052Z,4.24
2018-12-13T01:09:57.076Z,4.20
2018-12-13T01:10:57.096Z,4.12
2018-12-13T01:11:57.122Z,4.22
2018-12-13T01:12:57.141Z,4.12
2018-12-13T01:13:57.163Z,4.20
2018-12-13T01:14:57.184Z,4.14
2018-12-13T01:15:57.212Z,4.18
2018-12-13T01:16:57.231Z,4.17
2018-12-13T01:17:57.253Z,4.10
2018-12-13T01:18:57.275Z,4.10
2018-12-13T01:19:57.295Z,4.12
2018-12-13T01:20:57.318Z,4.14
2018-12-13T01:21:57.340Z,4.08
2018-12-13T01:22:57.360Z,4.10
2018-12-13T01:23:57.383Z,3.99
2018-12-13T01:24:57.406Z,4.04
2018-12-13T01:25:57.426Z,4.08
2018-12-13T01:26:57.448Z,4.08
2018-12-13T01:27:57.472Z,4.03
2018-12-13T01:28:57.493Z,4.07
2018-12-13T01:29:57.515Z,4.10
2018-12-13T01:30:57.535Z,4.02
2018-12-13T01:31:57.560Z,4.07
2018-12-13T01:32:57.584Z,3.96
2018-12-13T01:33:57.602Z,4.07
2018-12-13T01:34:57.623Z,3.99
2018-12-13T01:35:57.648Z,4.00
2018-12-13T01:36:57.670Z,3.86
2018-12-13T01:37:57.689Z,3.89
2018-12-13T01:38:57.713Z,3.93
2018-12-13T01:39:57.736Z,3.86
2018-12-13T01:41:04.024Z,3.94
2018-12-13T01:41:57.778Z,3.97
2018-12-13T01:42:57.798Z,3.92
2018-12-13T01:43:57.822Z,3.93
2018-12-13T01:44:57.843Z,3.81
2018-12-13T01:45:57.914Z,3.82
2018-12-13T01:46:57.885Z,3.84
2018-12-13T01:47:57.910Z,3.84
2018-12-13T01:48:57.929Z,3.84
2018-12-13T01:49:57.950Z,3.81
2018-12-13T01:50:57.972Z,3.74
2018-12-13T01:51:57.996Z,3.75
2018-12-13T01:52:58.018Z,3.76
2018-12-13T01:53:58.036Z,3.75
2018-12-13T01:54:58.058Z,3.66
2018-12-13T01:55:58.080Z,3.72
2018-12-13T01:56:58.102Z,3.58
2018-12-13T01:57:58.124Z,3.67
2018-12-13T01:58:58.145Z,3.57
2018-12-13T01:59:58.170Z,3.60
2018-12-13T02:00:58.191Z,3.56
2018-12-13T02:01:58.214Z,3.54
2018-12-13T02:02:58.232Z,3.57
2018-12-13T02:03:58.254Z,3.57
2018-12-13T02:04:58.277Z,3.53
2018-12-13T02:05:58.299Z,3.53
2018-12-13T02:06:58.826Z,3.49
2018-12-13T02:07:58.344Z,3.49
2018-12-13T02:08:58.361Z,3.49
2018-12-13T02:09:58.384Z,3.54
2018-12-13T02:10:58.404Z,3.51
2018-12-13T02:11:58.432Z,3.39
2018-12-13T02:12:58.453Z,3.49
2018-12-13T02:13:58.472Z,3.35
2018-12-13T02:14:58.494Z,3.45
2018-12-13T02:15:58.516Z,3.32
2018-12-13T02:16:58.536Z,3.37
2018-12-13T02:17:58.557Z,3.40
2018-12-13T02:18:58.580Z,3.30
2018-12-13T02:19:58.599Z,3.39
2018-12-13T02:20:58.619Z,3.42
2018-12-13T02:21:58.642Z,3.43
2018-12-13T02:22:58.670Z,3.39
2018-12-13T02:23:58.687Z,3.43
2018-12-13T02:24:58.706Z,3.40
2018-12-13T02:25:58.728Z,3.32
2018-12-13T02:26:58.753Z,3.32
2018-12-13T02:27:58.775Z,3.24
2018-12-13T02:28:58.797Z,3.29
2018-12-13T02:29:58.820Z,3.29
2018-12-13T02:30:58.835Z,3.34
2018-12-13T02:31:58.857Z,3.35
2018-12-13T02:32:58.881Z,3.29
2018-12-13T02:33:58.901Z,3.19
2018-12-13T02:34:58.923Z,3.32
2018-12-13T02:35:58.943Z,3.21
2018-12-13T02:37:05.758Z,3.23
2018-12-13T02:37:58.984Z,3.23
2018-12-13T02:38:59.006Z,3.21
2018-12-13T02:39:59.046Z,3.20
2018-12-13T02:40:59.048Z,3.24
2018-12-13T02:41:59.073Z,3.23
2018-12-13T02:42:59.097Z,3.21
2018-12-13T02:43:59.113Z,3.11
2018-12-13T02:44:59.134Z,3.09
2018-12-13T02:45:59.156Z,3.09
2018-12-13T02:46:59.179Z,3.06
2018-12-13T02:47:59.199Z,3.16
2018-12-13T02:48:59.224Z,3.09
2018-12-13T02:49:59.242Z,3.09
2018-12-13T02:50:59.267Z,3.11
2018-12-13T02:51:59.285Z,3.09
2018-12-13T02:52:59.306Z,3.09
2018-12-13T02:53:59.326Z,3.09
2018-12-13T02:54:59.350Z,3.03
2018-12-13T02:55:59.372Z,3.06
2018-12-13T02:56:59.393Z,3.13
2018-12-13T02:57:59.415Z,2.99
2018-12-13T02:58:59.436Z,2.99
2018-12-13T02:59:59.462Z,2.96
2018-12-13T03:00:59.478Z,3.03
2018-12-13T03:01:59.499Z,3.03
2018-12-13T03:02:59.521Z,3.05
2018-12-13T03:03:59.543Z,2.93
2018-12-13T03:04:59.563Z,3.01
2018-12-13T03:05:59.585Z,3.02
2018-12-13T03:06:59.606Z,2.99
2018-12-13T03:07:59.628Z,2.93
2018-12-13T03:08:59.646Z,2.95
2018-12-13T03:09:59.669Z,2.96
2018-12-13T03:10:59.695Z,2.87
2018-12-13T03:11:59.714Z,2.87
2018-12-13T03:12:59.734Z,2.85
2018-12-13T03:13:59.755Z,2.85
2018-12-13T03:14:59.776Z,2.88
2018-12-13T03:15:59.796Z,2.84
2018-12-13T03:16:59.817Z,2.91
2018-12-13T03:17:59.840Z,2.91
2018-12-13T03:18:59.859Z,2.85
2018-12-13T03:19:59.885Z,2.78
2018-12-13T03:20:59.901Z,2.78
2018-12-13T03:21:59.923Z,2.84
2018-12-13T03:22:59.944Z,2.83
2018-12-13T03:23:59.968Z,2.80
2018-12-13T03:24:59.987Z,2.81
2018-12-13T03:26:00.011Z,2.87
2018-12-13T03:27:00.031Z,2.81
2018-12-13T03:28:00.053Z,2.81
2018-12-13T03:29:00.070Z,2.85
2018-12-13T03:30:00.095Z,2.85
2018-12-13T03:31:00.117Z,2.87
2018-12-13T03:32:00.139Z,2.90
2018-12-13T03:33:00.162Z,2.91
2018-12-13T03:34:00.179Z,2.88
2018-12-13T03:35:00.198Z,2.96
2018-12-13T03:36:00.230Z,2.83
2018-12-13T03:37:00.244Z,2.98
2018-12-13T03:38:00.266Z,2.88
2018-12-13T03:39:00.286Z,2.91
2018-12-13T03:40:00.308Z,2.84
2018-12-13T03:41:00.329Z,2.91
2018-12-13T03:42:00.351Z,2.87
2018-12-13T03:43:00.372Z,2.78
2018-12-13T03:44:00.390Z,2.87
2018-12-13T03:45:00.422Z,2.91
2018-12-13T03:46:00.432Z,2.83
2018-12-13T03:47:00.525Z,2.80
2018-12-13T03:48:00.477Z,2.87
2018-12-13T03:49:00.495Z,2.83
2018-12-13T03:50:00.519Z,2.72
2018-12-13T03:51:00.543Z,2.77
2018-12-13T03:52:00.559Z,2.63
2018-12-13T03:53:00.582Z,2.76
2018-12-13T03:54:00.603Z,2.81
2018-12-13T03:55:00.626Z,2.69
2018-12-13T03:56:00.643Z,2.70
2018-12-13T03:57:00.665Z,2.66
2018-12-13T03:58:00.686Z,2.67
2018-12-13T03:59:00.709Z,2.60
2018-12-13T04:00:00.728Z,2.67
2018-12-13T04:01:00.749Z,2.59
2018-12-13T04:02:00.773Z,2.59
2018-12-13T04:03:00.795Z,2.63
2018-12-13T04:04:00.817Z,2.66
2018-12-13T04:05:00.834Z,2.73
2018-12-13T04:06:00.855Z,2.60
2018-12-13T04:07:00.878Z,2.54
2018-12-13T04:08:00.899Z,2.60
2018-12-13T04:09:00.920Z,2.58
2018-12-13T04:10:00.942Z,2.62
2018-12-13T04:11:00.963Z,2.65
2018-12-13T04:12:00.987Z,2.65
2018-12-13T04:13:01.004Z,2.63
2018-12-13T04:14:01.025Z,2.55
2018-12-13T04:15:01.044Z,2.60
2018-12-13T04:16:01.067Z,2.58
2018-12-13T04:17:01.086Z,2.58
2018-12-13T04:18:01.113Z,2.55
2018-12-13T04:19:01.131Z,2.62
2018-12-13T04:20:01.149Z,2.59
2018-12-13T04:21:01.174Z,2.49
2018-12-13T04:22:01.192Z,2.58
2018-12-13T04:23:01.216Z,2.59
2018-12-13T04:24:01.233Z,2.59
2018-12-13T04:25:01.262Z,2.52
2018-12-13T04:26:01.277Z,2.55
2018-12-13T04:27:01.296Z,2.44
2018-12-13T04:28:01.318Z,2.40
2018-12-13T04:29:01.339Z,2.44
2018-12-13T04:30:01.363Z,2.47
2018-12-13T04:31:01.384Z,2.42
2018-12-13T04:32:01.404Z,2.51
2018-12-13T04:33:01.425Z,2.44
2018-12-13T04:34:01.454Z,2.47
2018-12-13T04:35:01.474Z,2.44
2018-12-13T04:36:01.489Z,2.44
2018-12-13T04:37:01.509Z,2.38
2018-12-13T04:38:01.534Z,2.36
2018-12-13T04:39:01.550Z,2.36
2018-12-13T04:40:01.569Z,2.40
2018-12-13T04:41:01.589Z,2.36
2018-12-13T04:42:01.613Z,2.34
2018-12-13T04:43:01.632Z,2.31
2018-12-13T04:44:01.657Z,2.42
2018-12-13T04:45:01.674Z,2.41
2018-12-13T04:46:01.697Z,2.30
2018-12-13T04:47:01.718Z,2.31
2018-12-13T04:48:01.742Z,2.29
2018-12-13T04:49:01.759Z,2.34
2018-12-13T04:50:01.790Z,2.34
2018-12-13T04:51:01.802Z,2.30
2018-12-13T04:52:01.823Z,2.31
2018-12-13T04:53:01.844Z,2.31
2018-12-13T04:54:01.868Z,2.23
2018-12-13T04:55:01.899Z,2.29
2018-12-13T04:56:01.911Z,2.24
2018-12-13T04:57:01.925Z,2.24
2018-12-13T04:58:01.945Z,2.24
2018-12-13T04:59:01.972Z,2.26
2018-12-13T05:00:02.000Z,2.23
2018-12-13T05:01:02.010Z,2.27
2018-12-13T05:02:02.038Z,2.20
2018-12-13T05:03:02.050Z,2.27
2018-12-13T05:04:02.074Z,2.24
2018-12-13T05:05:02.097Z,2.24
2018-12-13T05:06:02.114Z,2.26
2018-12-13T05:07:02.154Z,2.22
2018-12-13T05:08:02.155Z,2.29
2018-12-13T05:09:02.180Z,2.22
2018-12-13T05:10:02.197Z,2.23
2018-12-13T05:11:02.220Z,2.16
2018-12-13T05:12:02.240Z,2.16
2018-12-13T05:13:02.262Z,2.23
2018-12-13T05:14:02.284Z,2.23
2018-12-13T05:15:02.303Z,2.22
2018-12-13T05:16:02.325Z,2.15
2018-12-13T05:17:02.343Z,2.06
2018-12-13T05:18:02.365Z,2.11
2018-12-13T05:19:02.386Z,2.08
2018-12-13T05:20:02.409Z,2.08
2018-12-13T05:21:02.429Z,2.11
2018-12-13T05:22:02.451Z,2.06
2018-12-13T05:23:02.471Z,2.06
2018-12-13T05:24:02.490Z,2.09
2018-12-13T05:25:02.511Z,2.05
2018-12-13T05:26:02.616Z,2.06
2018-12-13T05:27:02.556Z,2.05
2018-12-13T05:28:02.574Z,2.05
2018-12-13T05:29:02.597Z,2.08
2018-12-13T05:30:02.615Z,2.06
2018-12-13T05:31:02.638Z,2.04
2018-12-13T05:32:02.659Z,2.02
2018-12-13T05:33:02.680Z,2.06
2018-12-13T05:34:02.701Z,1.90
2018-12-13T05:35:02.720Z,1.97
2018-12-13T05:36:02.742Z,2.01
2018-12-13T05:37:02.761Z,1.98
2018-12-13T05:38:02.784Z,2.02
2018-12-13T05:39:02.805Z,1.98
2018-12-13T05:40:02.827Z,2.02
2018-12-13T05:41:02.846Z,1.98
2018-12-13T05:42:02.866Z,1.98
2018-12-13T05:43:02.888Z,1.97
2018-12-13T05:44:02.912Z,1.94
2018-12-13T05:45:02.927Z,2.01
2018-12-13T05:46:02.948Z,2.01
2018-12-13T05:47:02.971Z,2.01
2018-12-13T05:48:02.991Z,1.98
2018-12-13T05:49:03.013Z,2.04
2018-12-13T05:50:03.030Z,1.97
2018-12-13T05:51:03.053Z,1.94
2018-12-13T05:52:03.076Z,1.93
2018-12-13T05:53:03.094Z,1.89
2018-12-13T05:54:03.117Z,1.94
2018-12-13T05:55:03.142Z,1.82
2018-12-13T05:56:03.157Z,2.02
2018-12-13T05:57:03.182Z,1.97
2018-12-13T05:58:03.198Z,1.92
2018-12-13T05:59:03.220Z,1.86
2018-12-13T06:00:03.240Z,1.93
2018-12-13T06:01:03.259Z,1.89
2018-12-13T06:02:03.282Z,1.86
2018-12-13T06:03:03.303Z,1.93
2018-12-13T06:04:03.335Z,1.92
2018-12-13T06:05:03.348Z,1.92
2018-12-13T06:06:03.367Z,1.86
2018-12-13T06:07:03.388Z,1.89
2018-12-13T06:08:03.407Z,1.90
2018-12-13T06:09:03.427Z,1.86
2018-12-13T06:10:03.453Z,1.87
2018-12-13T06:11:03.470Z,1.83
2018-12-13T06:12:03.489Z,1.76
2018-12-13T06:13:03.515Z,1.79
2018-12-13T06:14:03.533Z,1.83
2018-12-13T06:15:03.554Z,1.84
2018-12-13T06:16:03.575Z,1.84
2018-12-13T06:17:03.595Z,1.78
2018-12-13T06:18:06.796Z,1.82
2018-12-13T06:19:03.635Z,1.83
2018-12-13T06:20:03.656Z,1.83
2018-12-13T06:21:03.682Z,1.82
2018-12-13T06:22:03.696Z,1.87
2018-12-13T06:23:03.722Z,1.83
2018-12-13T06:24:03.741Z,1.76
2018-12-13T06:25:03.762Z,1.76
2018-12-13T06:26:03.781Z,1.79
2018-12-13T06:27:03.801Z,1.84
2018-12-13T06:28:03.823Z,1.79
2018-12-13T06:29:03.847Z,1.78
2018-12-13T06:30:07.426Z,1.83
2018-12-13T06:31:03.885Z,1.76
2018-12-13T06:32:03.908Z,1.76
2018-12-13T06:33:03.928Z,1.75
2018-12-13T06:34:03.948Z,1.79
2018-12-13T06:35:03.971Z,1.86
2018-12-13T06:36:03.989Z,1.83
2018-12-13T06:37:04.012Z,1.84
2018-12-13T06:38:04.032Z,1.84
2018-12-13T06:39:04.054Z,1.75
2018-12-13T06:40:04.074Z,1.76
2018-12-13T06:41:04.092Z,1.76
2018-12-13T06:42:04.116Z,1.79
2018-12-13T06:43:04.136Z,1.74
2018-12-13T06:44:04.156Z,1.76
2018-12-13T06:45:04.175Z,1.75
2018-12-13T06:46:04.197Z,1.82
2018-12-13T06:47:04.217Z,1.82
2018-12-13T06:48:04.239Z,1.84
2018-12-13T06:49:04.260Z,1.78
2018-12-13T06:50:04.280Z,1.82
2018-12-13T06:51:04.302Z,1.78
2018-12-13T06:52:04.322Z,1.83
2018-12-13T06:53:04.342Z,1.83
2018-12-13T06:54:04.360Z,1.86
2018-12-13T06:55:04.385Z,1.75
2018-12-13T06:56:04.407Z,1.84
2018-12-13T06:57:04.424Z,1.78
2018-12-13T06:58:04.444Z,1.75
2018-12-13T06:59:04.465Z,1.86
2018-12-13T07:00:04.486Z,1.82
2018-12-13T07:01:04.509Z,1.82
2018-12-13T07:02:04.529Z,1.75
2018-12-13T07:03:04.548Z,1.89
2018-12-13T07:04:04.572Z,1.82
2018-12-13T07:05:04.591Z,1.82
2018-12-13T07:06:04.612Z,1.86
2018-12-13T07:07:04.634Z,1.82
2018-12-13T07:08:07.785Z,1.74
2018-12-13T07:09:04.672Z,1.79
2018-12-13T07:10:04.696Z,1.82
2018-12-13T07:11:04.714Z,1.86
2018-12-13T07:12:04.737Z,1.84
2018-12-13T07:13:04.758Z,1.82
2018-12-13T07:14:04.776Z,1.79
2018-12-13T07:15:04.800Z,1.83
2018-12-13T07:16:04.817Z,1.78
2018-12-13T07:17:04.840Z,1.79
2018-12-13T07:18:04.861Z,1.84
2018-12-13T07:19:04.881Z,1.86
2018-12-13T07:20:04.909Z,1.83
2018-12-13T07:21:04.921Z,1.76
2018-12-13T07:22:04.944Z,1.86
2018-12-13T07:23:04.965Z,1.69
2018-12-13T07:24:04.984Z,1.75
2018-12-13T07:25:05.006Z,1.75
2018-12-13T07:26:05.025Z,1.78
2018-12-13T07:27:05.048Z,1.72
2018-12-13T07:28:05.067Z,1.68
2018-12-13T07:29:05.087Z,1.72
2018-12-13T07:30:05.108Z,1.74
2018-12-13T07:31:05.132Z,1.75
2018-12-13T07:32:05.153Z,1.74
2018-12-13T07:33:05.171Z,1.71
2018-12-13T07:34:05.192Z,1.68
2018-12-13T07:35:05.214Z,1.71
2018-12-13T07:36:05.235Z,1.68
2018-12-13T07:37:05.251Z,1.74
2018-12-13T07:38:05.276Z,1.69
2018-12-13T07:39:05.294Z,1.79
2018-12-13T07:40:05.320Z,1.76
2018-12-13T07:41:05.338Z,1.74
2018-12-13T07:42:05.361Z,1.74
2018-12-13T07:43:05.380Z,1.75
2018-12-13T07:44:05.398Z,1.74
2018-12-13T07:45:05.424Z,1.79
2018-12-13T07:46:05.442Z,1.82
2018-12-13T07:47:05.462Z,1.72
2018-12-13T07:48:05.483Z,1.84
2018-12-13T07:49:05.502Z,1.82
2018-12-13T07:50:05.525Z,1.83
2018-12-13T07:51:05.544Z,1.79
2018-12-13T07:52:05.567Z,1.83
2018-12-13T07:53:05.589Z,1.87
2018-12-13T07:54:05.607Z,1.94
2018-12-13T07:55:05.632Z,1.90
2018-12-13T07:56:05.648Z,1.90
2018-12-13T07:57:05.671Z,1.97
2018-12-13T07:58:05.689Z,2.02
2018-12-13T07:59:05.712Z,2.08
2018-12-13T08:00:05.731Z,2.06
2018-12-13T08:01:05.753Z,2.01
2018-12-13T08:02:05.777Z,2.05
2018-12-13T08:03:05.795Z,2.16
2018-12-13T08:04:05.815Z,2.20
2018-12-13T08:05:05.834Z,2.13
2018-12-13T08:06:05.858Z,2.12
2018-12-13T08:07:05.877Z,2.08
2018-12-13T08:08:05.903Z,2.15
2018-12-13T08:09:05.921Z,2.18
2018-12-13T08:10:05.942Z,2.11
2018-12-13T08:11:05.961Z,2.20
2018-12-13T08:12:05.985Z,2.23
2018-12-13T08:13:06.005Z,2.18
2018-12-13T08:14:06.025Z,2.29
2018-12-13T08:15:06.045Z,2.31
2018-12-13T08:16:06.066Z,2.30
2018-12-13T08:17:06.090Z,2.30
2018-12-13T08:18:06.107Z,2.36
2018-12-13T08:19:06.129Z,2.40
2018-12-13T08:20:06.152Z,2.33
2018-12-13T08:21:06.172Z,2.48
2018-12-13T08:22:06.198Z,2.42
2018-12-13T08:23:06.215Z,2.47
2018-12-13T08:24:06.234Z,2.48
2018-12-13T08:25:06.258Z,2.55
2018-12-13T08:26:06.278Z,2.60
2018-12-13T08:27:06.297Z,2.59
2018-12-13T08:28:06.320Z,2.63
2018-12-13T08:29:06.340Z,2.69
2018-12-13T08:30:06.363Z,2.62
2018-12-13T08:31:06.384Z,2.66
2018-12-13T08:32:06.463Z,2.70
2018-12-13T08:33:06.424Z,2.76
2018-12-13T08:34:06.499Z,2.87
2018-12-13T08:35:06.469Z,2.87
2018-12-13T08:36:06.493Z,2.96
2018-12-13T08:37:06.510Z,3.09
2018-12-13T08:38:06.533Z,3.09
2018-12-13T08:39:06.553Z,3.13
2018-12-13T08:40:06.576Z,3.09
2018-12-13T08:41:06.595Z,3.05
2018-12-13T08:42:06.619Z,3.13
2018-12-13T08:43:06.639Z,3.03
2018-12-13T08:44:06.665Z,3.14
2018-12-13T08:45:06.682Z,3.14
2018-12-13T08:46:06.704Z,3.21
2018-12-13T08:47:06.726Z,3.20
2018-12-13T08:48:06.750Z,3.20
2018-12-13T08:49:06.769Z,3.23
2018-12-13T08:50:06.790Z,3.19
2018-12-13T08:51:06.813Z,3.20
2018-12-13T08:52:06.834Z,3.29
2018-12-13T08:53:06.863Z,3.17
2018-12-13T08:54:06.881Z,3.40
2018-12-13T08:55:06.903Z,3.21
2018-12-13T08:56:06.921Z,3.34
2018-12-13T08:57:06.945Z,3.37
2018-12-13T08:58:06.977Z,3.51
2018-12-13T08:59:06.988Z,3.46
2018-12-13T09:00:07.008Z,3.43
2018-12-13T09:01:07.031Z,3.45
2018-12-13T09:02:07.054Z,3.63
2018-12-13T09:03:07.076Z,3.63
2018-12-13T09:04:07.099Z,3.72
2018-12-13T09:05:07.117Z,3.79
2018-12-13T09:06:07.139Z,3.74
2018-12-13T09:07:07.163Z,3.89
2018-12-13T09:08:07.186Z,4.29
2018-12-13T09:09:07.204Z,4.85
2018-12-13T09:10:07.231Z,5.59
2018-12-13T09:11:07.252Z,6.10
2018-12-13T09:12:07.275Z,6.73
2018-12-13T09:13:07.297Z,7.08
2018-12-13T09:14:07.391Z,6.90
2018-12-13T09:15:07.343Z,6.40
2018-12-13T09:16:07.366Z,5.82
2018-12-13T09:17:07.387Z,5.63
2018-12-13T09:18:07.417Z,5.73
2018-12-13T09:19:07.434Z,5.67
2018-12-13T09:20:07.460Z,5.48
2018-12-13T09:21:07.483Z,5.33
2018-12-13T09:22:07.506Z,5.28
2018-12-13T09:23:07.532Z,4.94
2018-12-13T09:24:07.556Z,4.90
2018-12-13T09:25:07.578Z,4.76
2018-12-13T09:26:07.599Z,4.75
2018-12-13T09:27:07.626Z,4.71
2018-12-13T09:28:07.651Z,4.64
2018-12-13T09:29:07.671Z,4.69
2018-12-13T09:30:07.695Z,4.56
2018-12-13T09:31:07.725Z,4.60
2018-12-13T09:32:07.744Z,4.60
2018-12-13T09:33:07.766Z,4.54
2018-12-13T09:34:07.791Z,4.54
2018-12-13T09:35:07.815Z,4.85
2018-12-13T09:36:07.839Z,4.83
2018-12-13T09:37:07.866Z,4.84
2018-12-13T09:38:07.887Z,4.88
2018-12-13T09:39:07.913Z,4.91
2018-12-13T09:40:07.933Z,4.91
2018-12-13T09:41:07.962Z,4.83
2018-12-13T09:42:07.981Z,4.84
2018-12-13T09:43:08.005Z,4.78
2018-12-13T09:44:08.030Z,4.92
2018-12-13T09:45:08.053Z,4.94
2018-12-13T09:46:08.080Z,4.92
2018-12-13T09:47:08.100Z,4.76
2018-12-13T09:48:08.127Z,4.72
2018-12-13T09:49:08.147Z,4.75
2018-12-13T09:50:08.171Z,4.71
2018-12-13T09:51:08.196Z,4.68
2018-12-13T09:52:08.218Z,4.50
2018-12-13T09:53:08.241Z,4.54
2018-12-13T09:54:08.267Z,4.69
2018-12-13T09:55:08.287Z,4.68
2018-12-13T09:56:08.313Z,4.64
2018-12-13T09:57:08.335Z,4.88
2018-12-13T09:58:08.359Z,5.00
2018-12-13T09:59:08.383Z,5.10
2018-12-13T10:00:08.410Z,5.24
2018-12-13T10:01:08.429Z,5.33
2018-12-13T10:02:08.453Z,5.45
2018-12-13T10:03:08.475Z,5.54
2018-12-13T10:04:08.502Z,5.54
2018-12-13T10:05:08.524Z,5.37
2018-12-13T10:06:08.547Z,5.45
2018-12-13T10:07:08.570Z,5.31
2018-12-13T10:08:08.595Z,5.42
2018-12-13T10:09:08.616Z,5.51
2018-12-13T10:10:08.642Z,5.62
2018-12-13T10:11:08.662Z,5.57
2018-12-13T10:12:08.690Z,5.66
2018-12-13T10:13:08.712Z,5.62
2018-12-13T10:14:08.735Z,5.55
2018-12-13T10:15:08.759Z,5.49
2018-12-13T10:16:08.785Z,5.41
2018-12-13T10:17:08.806Z,5.37
2018-12-13T10:18:08.831Z,5.46
2018-12-13T10:19:08.853Z,5.31
2018-12-13T10:20:08.882Z,5.37
2018-12-13T10:21:08.903Z,5.36
2018-12-13T10:22:11.870Z,5.39
2018-12-13T10:23:08.951Z,5.46
2018-12-13T10:24:08.973Z,5.34
2018-12-13T10:25:08.996Z,5.36
2018-12-13T10:26:09.020Z,5.21
2018-12-13T10:27:09.043Z,5.28
2018-12-13T10:28:09.069Z,5.44
2018-12-13T10:29:09.095Z,5.55
2018-12-13T10:30:09.116Z,5.48
2018-12-13T10:31:09.140Z,5.44
2018-12-13T10:32:09.164Z,5.39
2018-12-13T10:33:09.186Z,5.54
2018-12-13T10:34:09.209Z,5.55
2018-12-13T10:35:11.468Z,5.46
2018-12-13T10:36:09.261Z,5.37
2018-12-13T10:37:09.282Z,5.49
2018-12-13T10:38:09.360Z,5.55
2018-12-13T10:39:09.327Z,5.63
2018-12-13T10:40:09.419Z,5.69
2018-12-13T10:41:09.378Z,5.64
2018-12-13T10:42:09.400Z,5.75
2018-12-13T10:43:09.425Z,5.85
2018-12-13T10:44:09.447Z,5.62
2018-12-13T10:45:09.471Z,5.59
2018-12-13T10:46:09.498Z,5.62
2018-12-13T10:47:09.516Z,5.54
2018-12-13T10:48:09.542Z,5.49
2018-12-13T10:49:09.562Z,5.44
2018-12-13T10:50:09.590Z,5.49
2018-12-13T10:51:09.614Z,5.48
2018-12-13T10:52:09.637Z,5.48
2018-12-13T10:53:09.658Z,5.45
2018-12-13T10:54:09.682Z,5.48
2018-12-13T10:55:09.708Z,5.34
2018-12-13T10:56:09.732Z,5.39
2018-12-13T10:57:09.754Z,5.31
2018-12-13T10:58:09.779Z,5.27
2018-12-13T10:59:09.801Z,5.39
2018-12-13T11:00:09.829Z,5.46
2018-12-13T11:01:09.846Z,5.46
2018-12-13T11:02:09.872Z,5.44
2018-12-13T11:03:09.897Z,5.34
2018-12-13T11:04:09.918Z,5.41
2018-12-13T11:05:09.942Z,5.44
2018-12-13T11:06:09.965Z,5.45
2018-12-13T11:07:09.988Z,5.52
2018-12-13T11:08:10.015Z,5.55
2018-12-13T11:09:12.859Z,5.49
2018-12-13T11:10:10.062Z,5.39
2018-12-13T11:11:10.084Z,5.34
2018-12-13T11:12:10.308Z,5.20
2018-12-13T11:13:10.330Z,5.23
2018-12-13T11:14:10.152Z,5.30
2018-12-13T11:15:10.178Z,5.27
2018-12-13T11:16:10.302Z,5.30
2018-12-13T11:17:10.325Z,5.24
2018-12-13T11:18:10.247Z,5.10
2018-12-13T11:19:10.321Z,5.12
2018-12-13T11:20:10.292Z,5.10
2018-12-13T11:21:10.318Z,5.31
2018-12-13T11:22:10.338Z,5.34
2018-12-13T11:23:10.364Z,5.31
2018-12-13T11:24:10.388Z,5.37
2018-12-13T11:25:10.409Z,5.49
2018-12-13T11:26:10.432Z,5.54
2018-12-13T11:27:10.454Z,5.41
2018-12-13T11:28:10.479Z,5.41
2018-12-13T11:29:10.502Z,5.54
2018-12-13T11:30:10.525Z,5.62
2018-12-13T11:31:10.549Z,5.66
2018-12-13T11:32:10.572Z,5.73
2018-12-13T11:33:10.593Z,5.89
2018-12-13T11:34:10.616Z,5.82
2018-12-13T11:35:10.639Z,5.78
2018-12-13T11:36:10.665Z,5.63
2018-12-13T11:37:10.760Z,5.66
2018-12-13T11:38:10.752Z,5.63
2018-12-13T11:39:10.737Z,5.57
2018-12-13T11:40:10.756Z,5.64
2018-12-13T11:41:10.781Z,5.63
2018-12-13T11:42:10.805Z,5.84
2018-12-13T11:43:10.837Z,5.85
2018-12-13T11:44:10.854Z,6.05
2018-12-13T11:45:10.876Z,6.07
2018-12-13T11:46:10.900Z,6.15
2018-12-13T11:47:10.917Z,6.10
2018-12-13T11:48:10.942Z,6.09
2018-12-13T11:49:12.325Z,6.25
2018-12-13T11:50:10.988Z,6.31
2018-12-13T11:51:11.012Z,6.43
2018-12-13T11:52:11.037Z,6.64
2018-12-13T11:53:11.059Z,6.55
2018-12-13T11:54:11.082Z,6.52
2018-12-13T11:55:11.106Z,6.52
2018-12-13T11:56:11.130Z,6.42
2018-12-13T11:57:11.155Z,6.42
2018-12-13T11:58:11.179Z,6.42
2018-12-13T11:59:11.201Z,6.31
2018-12-13T12:00:11.227Z,6.44
2018-12-13T12:01:11.251Z,6.51
2018-12-13T12:02:11.422Z,6.57
2018-12-13T12:03:11.299Z,6.62
2018-12-13T12:04:11.323Z,6.82
2018-12-13T12:05:11.394Z,6.86
2018-12-13T12:06:11.370Z,6.70
2018-12-13T12:07:11.401Z,6.79
2018-12-13T12:08:11.417Z,6.68
2018-12-13T12:09:12.336Z,6.64
2018-12-13T12:10:11.465Z,6.62
2018-12-13T12:11:11.491Z,6.58
2018-12-13T12:12:11.513Z,6.60
2018-12-13T12:13:11.589Z,6.75
2018-12-13T12:14:11.565Z,7.34
2018-12-13T12:15:11.587Z,8.06
2018-12-13T12:16:11.610Z,8.61
2018-12-13T12:17:11.634Z,9.30
2018-12-13T12:18:11.659Z,9.60
2018-12-13T12:19:11.683Z,10.11
2018-12-13T12:20:11.709Z,9.98
2018-12-13T12:21:11.733Z,9.63
2018-12-13T12:22:11.959Z,9.81
2018-12-13T12:23:11.787Z,9.96
2018-12-13T12:24:11.813Z,9.85
2018-12-13T12:25:11.836Z,9.38
2018-12-13T12:26:11.862Z,8.65
2018-12-13T12:27:11.889Z,8.31
2018-12-13T12:28:11.917Z,7.92
2018-12-13T12:29:11.943Z,8.22
2018-12-13T12:30:11.968Z,9.05
2018-12-13T12:31:11.994Z,9.66
2018-12-13T12:32:12.023Z,9.95
2018-12-13T12:33:12.050Z,10.25
2018-12-13T12:34:12.077Z,10.23
2018-12-13T12:35:12.104Z,10.14
2018-12-13T12:36:12.129Z,9.89
2018-12-13T12:37:12.155Z,9.98
2018-12-13T12:38:12.186Z,10.38
2018-12-13T12:39:18.380Z,10.23
2018-12-13T12:40:12.238Z,10.32
2018-12-13T12:41:12.267Z,9.88
2018-12-13T12:42:12.301Z,9.72
2018-12-13T12:43:12.324Z,9.45
2018-12-13T12:44:12.351Z,8.98
2018-12-13T12:45:12.378Z,8.17
2018-12-13T12:46:12.406Z,7.48
2018-12-13T12:47:12.435Z,7.30
2018-12-13T12:48:12.460Z,7.18
2018-12-13T12:49:12.489Z,7.51
2018-12-13T12:50:12.514Z,7.41
2018-12-13T12:51:12.544Z,6.95
2018-12-13T12:52:12.570Z,6.86
2018-12-13T12:53:12.596Z,6.60
2018-12-13T12:54:12.625Z,6.54
2018-12-13T12:55:12.652Z,6.44
2018-12-13T12:56:12.681Z,6.44
2018-12-13T12:57:13.389Z,6.34
2018-12-13T12:58:12.731Z,6.25
2018-12-13T12:59:12.759Z,6.13
2018-12-13T13:00:12.783Z,6.10
2018-12-13T13:01:12.811Z,5.99
2018-12-13T13:02:12.835Z,5.96
2018-12-13T13:03:12.862Z,5.99
2018-12-13T13:04:12.888Z,6.00
2018-12-13T13:05:12.912Z,5.85
2018-12-13T13:06:12.938Z,5.72
2018-12-13T13:07:12.966Z,5.70
2018-12-13T13:08:12.989Z,5.63
2018-12-13T13:09:13.013Z,5.57
2018-12-13T13:10:13.038Z,5.62
2018-12-13T13:11:13.066Z,5.51
2018-12-13T13:12:13.092Z,5.48
2018-12-13T13:13:13.114Z,5.46
2018-12-13T13:14:13.138Z,5.45
2018-12-13T13:15:13.162Z,5.48
2018-12-13T13:16:13.188Z,5.51
2018-12-13T13:17:13.213Z,5.46
2018-12-13T13:18:13.237Z,5.42
2018-12-13T13:19:13.264Z,5.49